createdAt,value
2022-10-08T00:01:16.157Z,12.35
2022-10-08T00:03:45.980Z,13.07
2022-10-08T00:06:16.183Z,12.30
2022-10-08T00:08:49.315Z,13.10
2022-10-08T00:11:19.647Z,13.27
2022-10-08T00:13:48.103Z,14.00
2022-10-08T00:16:23.448Z,13.85
2022-10-08T00:18:52.825Z,14.85
2022-10-08T00:21:23.421Z,13.23
2022-10-08T00:23:52.935Z,14.00
2022-10-08T00:26:25.832Z,14.07
2022-10-08T00:28:56.648Z,14.32
2022-10-08T00:31:45.252Z,14.00
2022-10-08T00:34:15.420Z,13.15
2022-10-08T00:36:43.299Z,14.27
2022-10-08T00:39:15.993Z,13.43
2022-10-08T00:41:45.878Z,13.65
2022-10-08T00:44:47.861Z,13.25
2022-10-08T00:47:22.793Z,12.63
2022-10-08T00:49:51.488Z,13.75
2022-10-08T00:52:19.743Z,13.88
2022-10-08T00:54:50.101Z,12.93
2022-10-08T00:57:18.992Z,12.35
2022-10-08T00:59:46.564Z,13.57
2022-10-08T01:02:14.335Z,12.70
2022-10-08T01:04:42.721Z,13.32
2022-10-08T01:07:16.327Z,13.68
2022-10-08T01:09:57.687Z,12.98
2022-10-08T01:12:47.608Z,13.10
2022-10-08T01:15:33.519Z,13.20
2022-10-08T01:18:13.847Z,14.00
2022-10-08T01:20:45.250Z,12.65
2022-10-08T01:23:26.812Z,12.82
2022-10-08T01:25:57.180Z,12.18
2022-10-08T01:28:32.392Z,11.45
2022-10-08T01:31:13.456Z,12.25
2022-10-08T01:33:48.342Z,11.65
2022-10-08T01:36:17.916Z,12.13
2022-10-08T01:38:49.465Z,12.60
2022-10-08T01:41:17.593Z,12.02
2022-10-08T01:44:08.276Z,12.35
2022-10-08T01:46:38.155Z,11.02
2022-10-08T01:49:08.849Z,12.37
2022-10-08T01:51:39.941Z,11.25
2022-10-08T01:54:09.828Z,12.02
2022-10-08T01:56:39.488Z,11.27
2022-10-08T01:59:17.289Z,12.50
2022-10-08T02:01:52.462Z,11.00
2022-10-08T02:04:37.149Z,11.10
2022-10-08T02:07:16.117Z,10.75
2022-10-08T02:09:46.024Z,11.02
2022-10-08T02:12:14.422Z,11.35
2022-10-08T02:14:44.449Z,11.18
2022-10-08T02:17:39.283Z,11.73
2022-10-08T02:20:16.053Z,11.80
2022-10-08T02:22:52.503Z,11.60
2022-10-08T02:25:47.144Z,11.27
2022-10-08T02:28:33.005Z,10.52
2022-10-08T02:31:05.832Z,11.20
2022-10-08T02:33:38.616Z,11.63
2022-10-08T02:36:08.300Z,11.52
2022-10-08T02:38:45.205Z,10.95
2022-10-08T02:41:13.522Z,10.93
2022-10-08T02:43:45.263Z,11.75
2022-10-08T02:46:24.928Z,11.63
2022-10-08T02:49:01.579Z,10.80
2022-10-08T02:51:30.561Z,11.18
2022-10-08T02:53:59.315Z,11.05
2022-10-08T02:56:28.135Z,10.77
2022-10-08T02:58:55.755Z,9.90
2022-10-08T03:01:35.998Z,9.95
2022-10-08T03:04:10.363Z,10.55
2022-10-08T03:06:38.016Z,11.05
2022-10-08T03:09:06.849Z,10.30
2022-10-08T03:11:34.531Z,10.25
2022-10-08T03:14:05.158Z,10.57
2022-10-08T03:16:38.130Z,10.43
2022-10-08T03:19:07.672Z,10.05
2022-10-08T03:21:36.285Z,10.25
2022-10-08T03:24:03.634Z,10.65
2022-10-08T03:26:31.189Z,10.43
2022-10-08T03:28:58.487Z,10.80
2022-10-08T03:31:25.774Z,13.10
2022-10-08T03:33:54.591Z,13.57
2022-10-08T03:36:23.399Z,12.02
2022-10-08T03:38:51.133Z,10.93
2022-10-08T03:41:18.993Z,10.50
2022-10-08T03:43:46.303Z,10.50
2022-10-08T03:46:15.032Z,10.38
2022-10-08T03:48:43.201Z,10.73
2022-10-08T03:51:14.442Z,10.00
2022-10-08T03:53:42.501Z,10.02
2022-10-08T03:56:16.357Z,10.20
2022-10-08T03:58:43.907Z,10.00
2022-10-08T04:01:13.648Z,10.88
2022-10-08T04:03:42.019Z,10.98
2022-10-08T04:06:09.371Z,10.63
2022-10-08T04:08:37.010Z,10.27
2022-10-08T04:11:05.979Z,11.30
2022-10-08T04:13:34.269Z,10.85
2022-10-08T04:16:03.622Z,10.77
2022-10-08T04:18:31.419Z,11.02
2022-10-08T04:21:00.231Z,10.32
2022-10-08T04:23:28.501Z,10.77
2022-10-08T04:25:56.697Z,9.68
2022-10-08T04:28:24.497Z,9.77
2022-10-08T04:30:59.493Z,9.60
2022-10-08T04:33:28.100Z,9.77
2022-10-08T04:35:59.848Z,11.02
2022-10-08T04:38:28.881Z,10.18
2022-10-08T04:41:10.410Z,10.13
2022-10-08T04:43:38.906Z,10.55
2022-10-08T04:46:08.667Z,10.48
2022-10-08T04:48:36.847Z,10.13
2022-10-08T04:51:10.042Z,10.50
2022-10-08T04:53:38.439Z,10.50
2022-10-08T04:56:14.410Z,10.15
2022-10-08T04:58:41.795Z,10.02
2022-10-08T05:01:11.751Z,9.57
2022-10-08T05:03:42.074Z,10.00
2022-10-08T05:06:10.075Z,10.35
2022-10-08T05:08:37.549Z,11.48
2022-10-08T05:11:05.949Z,10.88
2022-10-08T05:13:33.568Z,10.63
2022-10-08T05:16:09.013Z,11.07
2022-10-08T05:18:37.410Z,11.73
2022-10-08T05:21:13.094Z,12.00
2022-10-08T05:23:42.720Z,12.35
2022-10-08T05:26:18.683Z,11.77
2022-10-08T05:28:48.004Z,11.40
2022-10-08T05:31:16.225Z,12.05
2022-10-08T05:33:43.691Z,12.30
2022-10-08T05:36:32.055Z,12.27
2022-10-08T05:39:00.863Z,13.02
2022-10-08T05:41:31.024Z,13.38
2022-10-08T05:43:58.858Z,14.73
2022-10-08T05:46:27.281Z,13.10
2022-10-08T05:48:55.907Z,12.48
2022-10-08T05:51:23.945Z,11.63
2022-10-08T05:53:52.812Z,12.80
2022-10-08T05:56:22.529Z,16.25
2022-10-08T05:58:50.787Z,17.42
2022-10-08T06:01:29.503Z,18.85
2022-10-08T06:04:00.495Z,18.05
2022-10-08T06:06:29.502Z,17.60
2022-10-08T06:08:59.051Z,16.55
2022-10-08T06:11:27.950Z,17.27
2022-10-08T06:13:56.740Z,17.58
2022-10-08T06:16:25.315Z,17.15
2022-10-08T06:18:52.746Z,16.02
2022-10-08T06:21:22.218Z,15.55
2022-10-08T06:23:51.974Z,14.90
2022-10-08T06:26:22.066Z,15.93
2022-10-08T06:28:49.970Z,15.85
2022-10-08T06:31:17.616Z,9.45
2022-10-08T06:33:45.371Z,16.42
2022-10-08T06:36:21.172Z,16.00
2022-10-08T06:38:56.769Z,15.00
2022-10-08T06:41:25.006Z,14.93
2022-10-08T06:43:52.351Z,13.95
2022-10-08T06:46:19.925Z,13.85
2022-10-08T06:48:48.104Z,14.05
2022-10-08T06:51:17.786Z,13.65
2022-10-08T06:53:51.268Z,13.60
2022-10-08T06:56:18.826Z,12.63
2022-10-08T06:58:47.443Z,13.27
2022-10-08T07:01:20.782Z,12.98
2022-10-08T07:03:52.739Z,14.02
2022-10-08T07:06:20.414Z,13.05
2022-10-08T07:08:51.873Z,14.13
2022-10-08T07:11:19.440Z,14.13
2022-10-08T07:13:47.297Z,13.80
2022-10-08T07:16:26.290Z,13.27
2022-10-08T07:18:55.999Z,14.43
2022-10-08T07:21:23.567Z,13.13
2022-10-08T07:23:51.404Z,13.52
2022-10-08T07:26:23.700Z,14.02
2022-10-08T07:28:59.977Z,13.57
2022-10-08T07:31:32.189Z,13.02
2022-10-08T07:34:01.140Z,12.80
2022-10-08T07:36:29.478Z,12.02
2022-10-08T07:38:58.709Z,13.07
2022-10-08T07:41:27.069Z,13.25
2022-10-08T07:43:58.365Z,13.10
2022-10-08T07:46:26.988Z,12.45
2022-10-08T07:48:59.170Z,13.62
2022-10-08T07:51:28.721Z,13.40
2022-10-08T07:54:01.461Z,12.73
2022-10-08T07:56:30.747Z,13.40
2022-10-08T07:58:58.841Z,12.70
2022-10-08T08:01:30.047Z,12.65
2022-10-08T08:04:00.910Z,12.52
2022-10-08T08:06:29.069Z,13.23
2022-10-08T08:08:56.843Z,12.35
2022-10-08T08:11:24.820Z,11.73
2022-10-08T08:13:52.179Z,12.50
2022-10-08T08:16:22.096Z,12.45
2022-10-08T08:18:51.995Z,12.05
2022-10-08T08:21:21.658Z,10.88
2022-10-08T08:23:51.636Z,11.15
2022-10-08T08:26:32.802Z,9.93
2022-10-08T08:29:03.054Z,10.65
2022-10-08T08:31:38.660Z,11.10
2022-10-08T08:34:09.128Z,11.73
2022-10-08T08:36:39.187Z,10.95
2022-10-08T08:39:08.342Z,11.32
2022-10-08T08:41:48.771Z,10.63
2022-10-08T08:44:16.208Z,7.53
2022-10-08T08:46:48.253Z,10.15
2022-10-08T08:49:28.232Z,10.57
2022-10-08T08:51:57.219Z,11.48
2022-10-08T08:54:24.924Z,11.00
2022-10-08T08:56:53.588Z,11.02
2022-10-08T08:59:26.333Z,10.18
2022-10-08T09:01:57.299Z,10.63
2022-10-08T09:04:33.677Z,10.93
2022-10-08T09:07:04.448Z,10.45
2022-10-08T09:09:41.649Z,10.10
2022-10-08T09:12:20.466Z,10.52
2022-10-08T09:14:53.039Z,10.52
2022-10-08T09:17:25.109Z,10.13
2022-10-08T09:19:52.411Z,11.15
2022-10-08T09:22:27.216Z,11.38
2022-10-08T09:24:59.694Z,10.82
2022-10-08T09:30:31.398Z,10.93
2022-10-08T09:33:02.871Z,10.57
2022-10-08T09:35:32.931Z,10.52
2022-10-08T09:38:04.864Z,10.48
2022-10-08T09:40:33.618Z,9.60
2022-10-08T09:43:11.424Z,9.02
2022-10-08T09:45:48.713Z,9.23
2022-10-08T09:48:20.620Z,9.93
2022-10-08T09:53:19.014Z,8.80
2022-10-08T09:55:54.548Z,7.78
2022-10-08T09:58:22.326Z,6.35
2022-10-08T10:00:58.556Z,6.25
2022-10-08T10:03:26.865Z,8.02
2022-10-08T10:05:55.520Z,8.80
2022-10-08T10:08:49.060Z,8.00
2022-10-08T10:11:25.321Z,8.30
2022-10-08T10:13:53.116Z,7.43
2022-10-08T10:16:36.571Z,6.70
2022-10-08T10:19:08.656Z,6.07
2022-10-08T10:21:42.412Z,6.15
2022-10-08T10:24:36.335Z,5.62
2022-10-08T10:27:15.200Z,5.85
2022-10-08T10:29:47.660Z,6.10
2022-10-08T10:32:21.221Z,6.40
2022-10-08T10:34:57.270Z,6.00
2022-10-08T10:37:34.019Z,6.75
2022-10-08T10:40:32.782Z,6.95
2022-10-08T10:43:14.304Z,8.27
2022-10-08T10:45:45.161Z,5.05
2022-10-08T10:48:15.544Z,5.78
2022-10-08T10:50:42.731Z,5.07
2022-10-08T10:53:22.018Z,5.25
2022-10-08T10:56:04.780Z,5.05
2022-10-08T10:58:35.266Z,4.68
2022-10-08T11:01:16.010Z,4.68
2022-10-08T11:04:10.505Z,4.68
2022-10-08T11:06:53.254Z,4.62
2022-10-08T11:09:44.149Z,4.43
2022-10-08T11:12:30.736Z,3.97
2022-10-08T11:15:19.189Z,3.95
2022-10-08T11:18:02.928Z,4.07
2022-10-08T11:21:02.936Z,4.68
2022-10-08T11:23:49.101Z,4.90
2022-10-08T11:26:30.196Z,4.10
2022-10-08T11:29:09.543Z,4.73
2022-10-08T11:31:51.015Z,4.43
2022-10-08T11:34:30.437Z,3.50
2022-10-08T11:37:36.823Z,4.03
2022-10-08T11:40:15.061Z,4.20
2022-10-08T11:43:24.279Z,4.12
2022-10-08T11:46:20.500Z,4.25
2022-10-08T11:48:49.591Z,4.53
2022-10-08T11:51:20.113Z,4.25
2022-10-08T11:54:34.437Z,4.57
2022-10-08T11:57:22.057Z,4.40
2022-10-08T11:59:56.954Z,4.68
2022-10-08T12:02:33.177Z,4.18
2022-10-08T12:05:26.361Z,4.12
2022-10-08T12:07:56.265Z,4.30
2022-10-08T12:10:35.067Z,4.50
2022-10-08T12:13:05.029Z,4.40
2022-10-08T12:15:49.412Z,4.18
2022-10-08T12:18:25.694Z,4.68
2022-10-08T12:21:21.751Z,4.37
2022-10-08T12:23:49.103Z,4.47
2022-10-08T12:26:16.916Z,4.28
2022-10-08T12:28:50.312Z,5.20
2022-10-08T12:31:31.352Z,4.20
2022-10-08T12:34:01.140Z,4.00
2022-10-08T12:36:35.253Z,4.47
2022-10-08T12:39:17.424Z,4.28
2022-10-08T12:42:09.824Z,4.25
2022-10-08T12:44:42.799Z,3.95
2022-10-08T12:47:16.367Z,3.78
2022-10-08T12:49:47.134Z,4.57
2022-10-08T12:52:16.515Z,4.28
2022-10-08T12:54:49.415Z,4.30
2022-10-08T12:57:26.335Z,4.40
2022-10-08T12:59:54.112Z,4.10
2022-10-08T13:02:33.484Z,4.80
2022-10-08T13:05:00.823Z,3.80
2022-10-08T13:07:30.687Z,4.20
2022-10-08T13:10:01.056Z,4.40
2022-10-08T13:12:28.655Z,4.45
2022-10-08T13:15:08.399Z,5.37
2022-10-08T13:17:36.749Z,5.50
2022-10-08T13:20:09.823Z,5.25
2022-10-08T13:22:37.720Z,5.45
2022-10-08T13:25:05.470Z,4.75
2022-10-08T13:27:37.543Z,4.68
2022-10-08T13:30:27.739Z,4.12
2022-10-08T13:33:20.663Z,4.40
2022-10-08T13:35:57.087Z,4.78
2022-10-08T13:38:31.014Z,4.70
2022-10-08T13:41:02.815Z,4.70
2022-10-08T13:43:30.619Z,4.75
2022-10-08T13:45:58.138Z,4.65
2022-10-08T13:48:26.424Z,4.12
2022-10-08T13:50:54.088Z,4.70
2022-10-08T13:53:23.173Z,4.60
2022-10-08T13:55:51.171Z,4.55
2022-10-08T13:58:20.363Z,5.05
2022-10-08T14:00:48.528Z,4.75
2022-10-08T14:03:16.217Z,4.70
2022-10-08T14:05:45.494Z,4.70
2022-10-08T14:08:16.643Z,4.75
2022-10-08T14:10:44.363Z,5.22
2022-10-08T14:13:13.966Z,5.57
2022-10-08T14:15:41.663Z,5.45
2022-10-08T14:18:09.219Z,5.22
2022-10-08T14:20:36.701Z,5.30
2022-10-08T14:23:04.003Z,5.15
2022-10-08T14:25:31.817Z,5.57
2022-10-08T14:27:59.776Z,4.72
2022-10-08T14:30:27.504Z,5.28
2022-10-08T14:32:55.173Z,5.25
2022-10-08T14:35:22.546Z,4.55
2022-10-08T14:37:50.308Z,4.82
2022-10-08T14:40:22.508Z,6.43
2022-10-08T14:42:50.614Z,5.47
2022-10-08T14:45:18.406Z,6.28
2022-10-08T14:47:46.100Z,5.97
2022-10-08T14:50:13.716Z,6.32
2022-10-08T14:52:44.468Z,27.52
2022-10-08T14:55:12.268Z,39.08
2022-10-08T14:57:39.603Z,31.73
2022-10-08T15:00:08.074Z,10.32
2022-10-08T15:02:35.453Z,10.63
2022-10-08T15:05:02.840Z,7.93
2022-10-08T15:07:30.826Z,7.53
2022-10-08T15:09:59.183Z,5.87
2022-10-08T15:12:26.560Z,5.43
2022-10-08T15:14:54.131Z,5.62
2022-10-08T15:17:21.522Z,4.85
2022-10-08T15:19:49.044Z,5.60
2022-10-08T15:22:16.693Z,4.87
2022-10-08T15:24:44.005Z,5.20
2022-10-08T15:27:11.283Z,5.12
2022-10-08T15:29:39.055Z,5.35
2022-10-08T15:32:06.888Z,5.35
2022-10-08T15:34:34.316Z,5.12
2022-10-08T15:37:02.027Z,5.30
2022-10-08T15:39:35.510Z,6.30
2022-10-08T15:42:03.747Z,6.00
2022-10-08T15:44:31.590Z,5.82
2022-10-08T15:47:05.561Z,5.15
2022-10-08T15:49:38.567Z,5.95
2022-10-08T15:52:08.001Z,6.57
2022-10-08T15:54:39.130Z,6.03
2022-10-08T15:57:07.496Z,6.87
2022-10-08T15:59:35.001Z,6.25
2022-10-08T16:02:02.793Z,6.55
2022-10-08T16:04:30.603Z,6.93
2022-10-08T16:06:58.007Z,7.70
2022-10-08T16:09:25.390Z,9.25
2022-10-08T16:11:52.941Z,10.18
2022-10-08T16:14:22.371Z,12.10
2022-10-08T16:16:50.359Z,12.75
2022-10-08T16:19:20.680Z,13.98
2022-10-08T16:21:49.869Z,14.27
2022-10-08T16:24:17.522Z,14.87
2022-10-08T16:26:45.235Z,16.87
2022-10-08T16:29:14.107Z,17.08
2022-10-08T16:31:42.653Z,16.40
2022-10-08T16:34:18.611Z,16.65
2022-10-08T16:36:48.027Z,18.08
2022-10-08T16:39:20.967Z,17.80
2022-10-08T16:41:49.025Z,18.05
2022-10-08T16:44:18.630Z,18.83
2022-10-08T16:46:50.111Z,19.25
2022-10-08T16:49:26.615Z,19.00
2022-10-08T16:52:02.285Z,16.55
2022-10-08T16:54:30.061Z,16.17
2022-10-08T16:56:57.687Z,15.55
2022-10-08T16:59:27.111Z,16.37
2022-10-08T17:01:57.409Z,16.00
2022-10-08T17:04:26.377Z,16.30
2022-10-08T17:06:53.878Z,19.77
2022-10-08T17:09:21.664Z,21.15
2022-10-08T17:11:48.990Z,25.60
2022-10-08T17:14:16.391Z,24.10
2022-10-08T17:16:45.622Z,21.60
2022-10-08T17:19:13.595Z,17.75
2022-10-08T17:21:41.542Z,18.80
2022-10-08T17:24:11.552Z,18.50
2022-10-08T17:26:39.187Z,20.58
2022-10-08T17:29:08.735Z,15.95
2022-10-08T17:31:36.911Z,13.45
2022-10-08T17:34:05.195Z,14.52
2022-10-08T17:36:35.183Z,15.32
2022-10-08T17:39:05.451Z,15.63
2022-10-08T17:41:35.730Z,15.65
2022-10-08T17:44:05.719Z,13.38
2022-10-08T17:46:35.691Z,14.07
2022-10-08T17:49:03.608Z,11.82
2022-10-08T17:51:31.227Z,13.68
2022-10-08T17:54:01.095Z,20.45
2022-10-08T17:56:29.227Z,29.73
2022-10-08T17:58:56.842Z,32.60
2022-10-08T18:01:34.710Z,26.58
2022-10-08T18:04:05.226Z,23.85
2022-10-08T18:06:34.919Z,17.65
2022-10-08T18:09:07.513Z,13.88
2022-10-08T18:11:36.728Z,12.00
2022-10-08T18:14:05.524Z,12.75
2022-10-08T18:16:33.380Z,14.10
2022-10-08T18:19:04.860Z,12.93
2022-10-08T18:21:35.380Z,11.40
2022-10-08T18:24:02.728Z,11.15
2022-10-08T18:26:35.562Z,13.45
2022-10-08T18:29:09.139Z,12.93
2022-10-08T18:31:38.262Z,13.05
2022-10-08T18:34:13.369Z,14.27
2022-10-08T18:36:40.875Z,15.38
2022-10-08T18:39:12.237Z,12.93
2022-10-08T18:41:41.849Z,11.85
2022-10-08T18:44:14.670Z,12.68
2022-10-08T18:46:45.171Z,12.05
2022-10-08T18:49:17.826Z,11.57
2022-10-08T18:54:12.642Z,11.35
2022-10-08T18:56:41.132Z,11.68
2022-10-08T18:59:12.895Z,11.12
2022-10-08T19:01:42.922Z,10.20
2022-10-08T19:04:20.543Z,10.77
2022-10-08T19:06:50.318Z,10.65
2022-10-08T19:09:17.865Z,10.75
2022-10-08T19:11:50.467Z,10.73
2022-10-08T19:14:19.871Z,10.80
2022-10-08T19:16:47.615Z,11.15
2022-10-08T19:19:22.703Z,11.07
2022-10-08T19:21:50.856Z,9.65
2022-10-08T19:24:23.414Z,9.85
2022-10-08T19:26:51.138Z,9.40
2022-10-08T19:29:23.681Z,10.13
2022-10-08T19:31:51.350Z,9.88
2022-10-08T19:34:23.159Z,9.35
2022-10-08T19:36:51.041Z,9.05
2022-10-08T19:39:23.784Z,9.80
2022-10-08T19:41:51.655Z,9.55
2022-10-08T19:44:19.911Z,9.15
2022-10-08T19:46:47.525Z,9.05
2022-10-08T19:49:15.525Z,9.60
2022-10-08T19:51:43.468Z,8.95
2022-10-08T19:54:11.383Z,8.23
2022-10-08T19:56:39.084Z,8.95
2022-10-08T19:59:06.464Z,9.73
2022-10-08T20:01:35.772Z,10.57
2022-10-08T20:04:05.678Z,10.75
2022-10-08T20:06:35.678Z,10.13
2022-10-08T20:09:04.007Z,10.27
2022-10-08T20:11:31.766Z,10.00
2022-10-08T20:13:59.713Z,9.70
2022-10-08T20:16:29.902Z,9.40
2022-10-08T20:18:59.471Z,9.20
2022-10-08T20:21:31.862Z,8.70
2022-10-08T20:23:59.333Z,9.40
2022-10-08T20:26:28.901Z,8.25
2022-10-08T20:29:01.065Z,8.43
2022-10-08T20:31:31.224Z,8.98
2022-10-08T20:34:30.991Z,8.02
2022-10-08T20:37:01.340Z,8.27
2022-10-08T20:39:28.945Z,7.85
2022-10-08T20:41:56.865Z,8.85
2022-10-08T20:44:24.426Z,15.63
2022-10-08T20:46:52.259Z,11.68
2022-10-08T20:49:20.150Z,10.13
2022-10-08T20:51:47.964Z,9.32
2022-10-08T20:54:16.683Z,10.35
2022-10-08T20:56:44.476Z,12.02
2022-10-08T20:59:16.316Z,11.00
2022-10-08T21:01:44.200Z,9.95
2022-10-08T21:04:12.648Z,9.68
2022-10-08T21:06:44.884Z,9.68
2022-10-08T21:09:13.826Z,8.68
2022-10-08T21:11:41.650Z,8.35
2022-10-08T21:14:17.525Z,9.38
2022-10-08T21:16:45.347Z,8.52
2022-10-08T21:19:18.887Z,9.00
2022-10-08T21:21:46.484Z,8.75
2022-10-08T21:24:13.833Z,9.90
2022-10-08T21:26:41.634Z,8.50
2022-10-08T21:29:11.615Z,8.73
2022-10-08T21:31:40.008Z,8.75
2022-10-08T21:34:07.871Z,8.60
2022-10-08T21:36:38.669Z,8.25
2022-10-08T21:39:07.303Z,8.70
2022-10-08T21:41:36.387Z,8.75
2022-10-08T21:44:06.387Z,8.90
2022-10-08T21:46:36.523Z,8.98
2022-10-08T21:49:06.688Z,9.27
2022-10-08T21:51:34.683Z,8.98
2022-10-08T21:54:03.727Z,8.30
2022-10-08T21:56:34.591Z,7.93
2022-10-08T21:59:03.127Z,8.43
2022-10-08T22:01:38.784Z,9.10
2022-10-08T22:04:09.301Z,7.80
2022-10-08T22:06:38.718Z,8.13
2022-10-08T22:09:08.339Z,8.00
2022-10-08T22:11:35.635Z,8.30
2022-10-08T22:14:02.976Z,7.70
2022-10-08T22:16:30.589Z,8.10
2022-10-08T22:18:58.209Z,8.00
2022-10-08T22:21:25.532Z,8.32
2022-10-08T22:23:53.093Z,8.48
2022-10-08T22:26:28.964Z,8.50
2022-10-08T22:28:57.295Z,8.48
2022-10-08T22:31:25.144Z,8.73
2022-10-08T22:33:52.929Z,9.35
2022-10-08T22:36:23.353Z,9.57
2022-10-08T22:38:50.801Z,9.15
2022-10-08T22:41:21.543Z,8.73
2022-10-08T22:43:49.276Z,9.88
2022-10-08T22:46:22.587Z,10.05
2022-10-08T22:48:50.604Z,10.88
2022-10-08T22:51:20.575Z,9.52
2022-10-08T22:53:48.531Z,10.25
2022-10-08T22:56:20.664Z,10.13
2022-10-08T22:58:48.823Z,9.48
2022-10-08T23:01:18.939Z,10.63
2022-10-08T23:03:46.317Z,10.23
2022-10-08T23:06:34.002Z,10.10
2022-10-08T23:09:04.828Z,10.50
2022-10-08T23:11:32.893Z,9.90
2022-10-08T23:14:00.901Z,10.77
2022-10-08T23:16:29.999Z,10.63
2022-10-08T23:18:59.328Z,10.65
2022-10-08T23:21:27.067Z,10.57
2022-10-08T23:23:55.336Z,10.00
2022-10-08T23:26:23.418Z,10.88
2022-10-08T23:28:56.641Z,10.07
2022-10-08T23:31:32.301Z,9.95
2022-10-08T23:34:00.352Z,10.18
2022-10-08T23:36:30.314Z,10.20
2022-10-08T23:38:57.650Z,9.82
2022-10-08T23:41:25.467Z,9.70
2022-10-08T23:43:53.804Z,10.02
2022-10-08T23:46:23.075Z,9.95
2022-10-08T23:48:51.200Z,9.85
2022-10-08T23:51:20.478Z,9.93
2022-10-08T23:53:48.138Z,9.68
2022-10-08T23:56:15.612Z,9.65
2022-10-08T23:58:43.195Z,9.82
